Hillsdale, New York
Current Conditions -  °F | °C
As of 12:54 AM on Friday 28 Nov 2014 (Local Time) from KPSF Reporting Station
Overcast Overcast  
Wind Chill: 16°   Ceiling: 1000
Heat Index: 25°   Visibility: 10mi
Dew Point: 22°   Wind: 8mph
Humidity: 88%   Direction: 300°WNW
Pressure: 29.95"   Gusts: NA
Location:  42.18°N, 73.52°W
Report Text: KPSF 280554Z AUTO 30007KT 10SM OVC010 M04/M06 A2995 RMK AO2 SNE04 CIG 009V014 SLP158 P0000 60001 T10391056 11033 21039 58005
Loading
Personal Weather Stations






























Interactive Weather Map New forecast layout! Learn more

10-Day Weather Forecast

Advertisements
Track Severe Weather on mobile